sensor_id;sensor_type;location;lat;lon;timestamp;P1;durP1;ratioP1;P2;durP2;ratioP2
15905;SDS011;8051;50.820;4.884;2024-01-25T00:00:38;63.10;;;27.67;;
15905;SDS011;8051;50.820;4.884;2024-01-25T00:03:06;67.00;;;28.60;;
15905;SDS011;8051;50.820;4.884;2024-01-25T00:05:33;57.07;;;28.63;;
15905;SDS011;8051;50.820;4.884;2024-01-25T00:08:02;51.17;;;28.07;;
15905;SDS011;8051;50.820;4.884;2024-01-25T00:10:30;69.50;;;28.00;;
15905;SDS011;8051;50.820;4.884;2024-01-25T00:12:58;68.03;;;27.67;;
15905;SDS011;8051;50.820;4.884;2024-01-25T00:15:25;72.67;;;29.00;;
15905;SDS011;8051;50.820;4.884;2024-01-25T00:17:53;72.70;;;29.07;;
15905;SDS011;8051;50.820;4.884;2024-01-25T00:20:20;60.80;;;28.70;;
15905;SDS011;8051;50.820;4.884;2024-01-25T00:22:48;72.67;;;29.63;;
15905;SDS011;8051;50.820;4.884;2024-01-25T00:25:17;53.13;;;30.13;;
15905;SDS011;8051;50.820;4.884;2024-01-25T00:27:44;64.10;;;29.87;;
15905;SDS011;8051;50.820;4.884;2024-01-25T00:30:12;66.60;;;28.37;;
15905;SDS011;8051;50.820;4.884;2024-01-25T00:32:40;59.47;;;28.37;;
15905;SDS011;8051;50.820;4.884;2024-01-25T00:35:08;69.00;;;30.43;;
15905;SDS011;8051;50.820;4.884;2024-01-25T00:37:39;71.77;;;29.17;;
15905;SDS011;8051;50.820;4.884;2024-01-25T00:40:07;51.53;;;27.23;;
15905;SDS011;8051;50.820;4.884;2024-01-25T00:42:38;68.80;;;27.43;;
15905;SDS011;8051;50.820;4.884;2024-01-25T00:45:09;69.00;;;30.53;;
15905;SDS011;8051;50.820;4.884;2024-01-25T00:47:37;72.03;;;28.33;;
15905;SDS011;8051;50.820;4.884;2024-01-25T00:50:06;46.63;;;26.80;;
15905;SDS011;8051;50.820;4.884;2024-01-25T00:52:34;67.70;;;26.93;;
15905;SDS011;8051;50.820;4.884;2024-01-25T00:55:02;73.77;;;29.40;;
15905;SDS011;8051;50.820;4.884;2024-01-25T00:57:30;58.17;;;29.07;;
15905;SDS011;8051;50.820;4.884;2024-01-25T01:00:00;61.97;;;28.10;;
15905;SDS011;8051;50.820;4.884;2024-01-25T01:02:28;52.70;;;26.17;;
15905;SDS011;8051;50.820;4.884;2024-01-25T01:04:57;60.97;;;27.40;;
15905;SDS011;8051;50.820;4.884;2024-01-25T01:07:25;75.80;;;28.77;;
15905;SDS011;8051;50.820;4.884;2024-01-25T01:09:53;64.63;;;26.97;;
15905;SDS011;8051;50.820;4.884;2024-01-25T01:12:21;67.63;;;29.50;;
15905;SDS011;8051;50.820;4.884;2024-01-25T01:14:48;59.47;;;26.40;;
15905;SDS011;8051;50.820;4.884;2024-01-25T01:17:17;57.50;;;29.07;;
15905;SDS011;8051;50.820;4.884;2024-01-25T01:19:45;60.93;;;28.67;;
15905;SDS011;8051;50.820;4.884;2024-01-25T01:22:12;57.87;;;26.50;;
15905;SDS011;8051;50.820;4.884;2024-01-25T01:24:39;73.17;;;28.50;;
15905;SDS011;8051;50.820;4.884;2024-01-25T01:27:07;71.83;;;29.00;;
15905;SDS011;8051;50.820;4.884;2024-01-25T01:29:34;57.80;;;27.97;;
15905;SDS011;8051;50.820;4.884;2024-01-25T01:32:02;55.80;;;25.87;;
15905;SDS011;8051;50.820;4.884;2024-01-25T01:34:31;62.50;;;27.50;;
15905;SDS011;8051;50.820;4.884;2024-01-25T01:36:59;53.50;;;27.40;;
15905;SDS011;8051;50.820;4.884;2024-01-25T01:39:26;57.57;;;28.27;;
15905;SDS011;8051;50.820;4.884;2024-01-25T01:41:54;63.50;;;27.13;;
15905;SDS011;8051;50.820;4.884;2024-01-25T01:44:21;62.93;;;27.63;;
15905;SDS011;8051;50.820;4.884;2024-01-25T01:46:48;47.83;;;27.50;;
15905;SDS011;8051;50.820;4.884;2024-01-25T01:49:16;63.47;;;28.43;;
15905;SDS011;8051;50.820;4.884;2024-01-25T01:51:45;68.57;;;26.30;;
15905;SDS011;8051;50.820;4.884;2024-01-25T01:54:12;74.77;;;26.87;;
15905;SDS011;8051;50.820;4.884;2024-01-25T01:56:40;71.03;;;28.57;;
15905;SDS011;8051;50.820;4.884;2024-01-25T01:59:09;80.93;;;28.30;;
15905;SDS011;8051;50.820;4.884;2024-01-25T02:01:37;61.50;;;26.40;;
15905;SDS011;8051;50.820;4.884;2024-01-25T02:04:05;67.03;;;26.73;;
15905;SDS011;8051;50.820;4.884;2024-01-25T02:06:32;57.67;;;27.47;;
15905;SDS011;8051;50.820;4.884;2024-01-25T02:09:01;72.73;;;27.80;;
15905;SDS011;8051;50.820;4.884;2024-01-25T02:11:30;59.20;;;25.43;;
15905;SDS011;8051;50.820;4.884;2024-01-25T02:13:57;70.07;;;27.53;;
15905;SDS011;8051;50.820;4.884;2024-01-25T02:16:25;52.67;;;24.27;;
15905;SDS011;8051;50.820;4.884;2024-01-25T02:18:52;62.17;;;25.40;;
15905;SDS011;8051;50.820;4.884;2024-01-25T02:21:22;61.00;;;26.53;;
15905;SDS011;8051;50.820;4.884;2024-01-25T02:23:51;60.80;;;24.47;;
15905;SDS011;8051;50.820;4.884;2024-01-25T02:26:18;68.17;;;25.07;;
15905;SDS011;8051;50.820;4.884;2024-01-25T02:28:46;68.77;;;24.97;;
15905;SDS011;8051;50.820;4.884;2024-01-25T02:31:13;62.90;;;25.17;;
15905;SDS011;8051;50.820;4.884;2024-01-25T02:33:41;76.00;;;25.97;;
15905;SDS011;8051;50.820;4.884;2024-01-25T02:36:08;63.07;;;25.43;;
15905;SDS011;8051;50.820;4.884;2024-01-25T02:38:35;68.03;;;25.53;;
15905;SDS011;8051;50.820;4.884;2024-01-25T02:41:05;57.50;;;25.17;;
15905;SDS011;8051;50.820;4.884;2024-01-25T02:43:32;62.30;;;25.20;;
15905;SDS011;8051;50.820;4.884;2024-01-25T02:45:59;66.43;;;25.03;;
15905;SDS011;8051;50.820;4.884;2024-01-25T02:48:27;60.23;;;24.77;;
15905;SDS011;8051;50.820;4.884;2024-01-25T02:50:54;60.50;;;27.33;;
15905;SDS011;8051;50.820;4.884;2024-01-25T02:53:22;55.77;;;24.93;;
15905;SDS011;8051;50.820;4.884;2024-01-25T02:55:49;78.47;;;24.53;;
15905;SDS011;8051;50.820;4.884;2024-01-25T02:58:18;53.23;;;23.27;;
15905;SDS011;8051;50.820;4.884;2024-01-25T03:00:46;55.63;;;23.27;;
15905;SDS011;8051;50.820;4.884;2024-01-25T03:03:13;62.93;;;25.27;;
15905;SDS011;8051;50.820;4.884;2024-01-25T03:05:41;67.87;;;24.57;;
15905;SDS011;8051;50.820;4.884;2024-01-25T03:08:09;72.67;;;23.47;;
15905;SDS011;8051;50.820;4.884;2024-01-25T03:10:36;59.60;;;21.73;;
15905;SDS011;8051;50.820;4.884;2024-01-25T03:13:04;59.27;;;24.33;;
15905;SDS011;8051;50.820;4.884;2024-01-25T03:15:32;55.80;;;23.20;;
15905;SDS011;8051;50.820;4.884;2024-01-25T03:17:59;86.63;;;22.50;;
15905;SDS011;8051;50.820;4.884;2024-01-25T03:20:27;49.30;;;22.83;;
15905;SDS011;8051;50.820;4.884;2024-01-25T03:22:54;49.13;;;20.47;;
15905;SDS011;8051;50.820;4.884;2024-01-25T03:25:22;72.53;;;23.57;;
15905;SDS011;8051;50.820;4.884;2024-01-25T03:27:49;66.07;;;23.10;;
15905;SDS011;8051;50.820;4.884;2024-01-25T03:30:17;55.07;;;20.60;;
15905;SDS011;8051;50.820;4.884;2024-01-25T03:32:46;50.03;;;21.73;;
15905;SDS011;8051;50.820;4.884;2024-01-25T03:35:14;58.27;;;21.27;;
15905;SDS011;8051;50.820;4.884;2024-01-25T03:37:41;77.93;;;22.53;;
15905;SDS011;8051;50.820;4.884;2024-01-25T03:40:09;58.00;;;19.30;;
15905;SDS011;8051;50.820;4.884;2024-01-25T03:42:37;51.93;;;19.27;;
15905;SDS011;8051;50.820;4.884;2024-01-25T03:45:04;48.90;;;20.93;;
15905;SDS011;8051;50.820;4.884;2024-01-25T03:47:33;70.43;;;21.83;;
15905;SDS011;8051;50.820;4.884;2024-01-25T03:50:02;66.33;;;23.20;;
15905;SDS011;8051;50.820;4.884;2024-01-25T03:52:30;75.83;;;21.43;;
15905;SDS011;8051;50.820;4.884;2024-01-25T03:54:57;70.43;;;21.40;;
15905;SDS011;8051;50.820;4.884;2024-01-25T03:57:25;65.10;;;22.10;;
15905;SDS011;8051;50.820;4.884;2024-01-25T03:59:52;66.37;;;21.93;;
15905;SDS011;8051;50.820;4.884;2024-01-25T04:02:19;56.67;;;21.40;;
15905;SDS011;8051;50.820;4.884;2024-01-25T04:04:47;49.43;;;19.27;;
15905;SDS011;8051;50.820;4.884;2024-01-25T04:07:16;66.33;;;21.10;;
15905;SDS011;8051;50.820;4.884;2024-01-25T04:09:44;80.47;;;23.40;;
15905;SDS011;8051;50.820;4.884;2024-01-25T04:12:11;65.97;;;22.00;;
15905;SDS011;8051;50.820;4.884;2024-01-25T04:14:39;56.40;;;21.27;;
15905;SDS011;8051;50.820;4.884;2024-01-25T04:17:06;69.17;;;19.97;;
15905;SDS011;8051;50.820;4.884;2024-01-25T04:19:35;62.40;;;22.53;;
15905;SDS011;8051;50.820;4.884;2024-01-25T04:22:02;63.07;;;20.50;;
15905;SDS011;8051;50.820;4.884;2024-01-25T04:24:31;70.20;;;21.70;;
15905;SDS011;8051;50.820;4.884;2024-01-25T04:26:59;59.50;;;20.20;;
15905;SDS011;8051;50.820;4.884;2024-01-25T04:29:27;43.23;;;20.77;;
15905;SDS011;8051;50.820;4.884;2024-01-25T04:31:54;56.43;;;21.57;;
15905;SDS011;8051;50.820;4.884;2024-01-25T04:34:22;47.77;;;21.30;;
15905;SDS011;8051;50.820;4.884;2024-01-25T04:36:49;55.23;;;22.60;;
15905;SDS011;8051;50.820;4.884;2024-01-25T04:39:16;71.90;;;19.73;;
15905;SDS011;8051;50.820;4.884;2024-01-25T04:41:45;63.47;;;19.37;;
15905;SDS011;8051;50.820;4.884;2024-01-25T04:44:13;59.73;;;20.37;;
15905;SDS011;8051;50.820;4.884;2024-01-25T04:46:41;54.63;;;20.93;;
15905;SDS011;8051;50.820;4.884;2024-01-25T04:49:08;73.33;;;23.57;;
15905;SDS011;8051;50.820;4.884;2024-01-25T04:51:36;57.93;;;21.23;;
15905;SDS011;8051;50.820;4.884;2024-01-25T04:54:04;82.93;;;20.53;;
15905;SDS011;8051;50.820;4.884;2024-01-25T04:56:32;64.70;;;21.17;;
15905;SDS011;8051;50.820;4.884;2024-01-25T04:59:01;61.70;;;21.53;;
15905;SDS011;8051;50.820;4.884;2024-01-25T05:01:29;54.93;;;19.67;;
15905;SDS011;8051;50.820;4.884;2024-01-25T05:03:56;60.03;;;18.30;;
15905;SDS011;8051;50.820;4.884;2024-01-25T05:06:23;59.83;;;18.93;;
15905;SDS011;8051;50.820;4.884;2024-01-25T05:08:51;75.90;;;19.37;;
15905;SDS011;8051;50.820;4.884;2024-01-25T05:11:18;64.23;;;19.10;;
15905;SDS011;8051;50.820;4.884;2024-01-25T05:13:46;57.63;;;20.10;;
15905;SDS011;8051;50.820;4.884;2024-01-25T05:16:14;74.03;;;18.53;;
15905;SDS011;8051;50.820;4.884;2024-01-25T05:18:42;58.67;;;15.97;;
15905;SDS011;8051;50.820;4.884;2024-01-25T05:21:09;59.00;;;20.77;;
15905;SDS011;8051;50.820;4.884;2024-01-25T05:23:37;60.23;;;20.23;;
15905;SDS011;8051;50.820;4.884;2024-01-25T05:26:05;85.27;;;20.40;;
15905;SDS011;8051;50.820;4.884;2024-01-25T05:28:33;51.07;;;17.23;;
15905;SDS011;8051;50.820;4.884;2024-01-25T05:31:00;64.40;;;17.57;;
15905;SDS011;8051;50.820;4.884;2024-01-25T05:33:29;73.90;;;21.60;;
15905;SDS011;8051;50.820;4.884;2024-01-25T05:35:57;59.13;;;19.27;;
15905;SDS011;8051;50.820;4.884;2024-01-25T05:38:24;71.97;;;18.67;;
15905;SDS011;8051;50.820;4.884;2024-01-25T05:40:52;68.80;;;17.43;;
15905;SDS011;8051;50.820;4.884;2024-01-25T05:43:19;47.60;;;17.50;;
15905;SDS011;8051;50.820;4.884;2024-01-25T05:45:47;54.73;;;18.27;;
15905;SDS011;8051;50.820;4.884;2024-01-25T05:48:14;58.33;;;18.93;;
15905;SDS011;8051;50.820;4.884;2024-01-25T05:50:43;66.57;;;17.37;;
15905;SDS011;8051;50.820;4.884;2024-01-25T05:53:10;50.67;;;17.13;;
15905;SDS011;8051;50.820;4.884;2024-01-25T05:55:38;68.90;;;18.00;;
15905;SDS011;8051;50.820;4.884;2024-01-25T05:58:05;63.70;;;19.37;;
15905;SDS011;8051;50.820;4.884;2024-01-25T06:00:33;62.93;;;17.50;;
15905;SDS011;8051;50.820;4.884;2024-01-25T06:03:00;59.30;;;17.57;;
15905;SDS011;8051;50.820;4.884;2024-01-25T06:05:28;45.13;;;14.27;;
15905;SDS011;8051;50.820;4.884;2024-01-25T06:07:57;76.63;;;18.20;;
15905;SDS011;8051;50.820;4.884;2024-01-25T06:10:24;77.67;;;18.07;;
15905;SDS011;8051;50.820;4.884;2024-01-25T06:12:52;95.13;;;21.00;;
15905;SDS011;8051;50.820;4.884;2024-01-25T06:15:19;98.87;;;19.73;;
15905;SDS011;8051;50.820;4.884;2024-01-25T06:17:47;73.10;;;17.80;;
15905;SDS011;8051;50.820;4.884;2024-01-25T06:20:14;92.80;;;17.17;;
15905;SDS011;8051;50.820;4.884;2024-01-25T06:22:42;59.30;;;17.97;;
15905;SDS011;8051;50.820;4.884;2024-01-25T06:25:10;68.30;;;19.80;;
15905;SDS011;8051;50.820;4.884;2024-01-25T06:27:38;83.50;;;19.53;;
15905;SDS011;8051;50.820;4.884;2024-01-25T06:30:06;70.10;;;17.67;;
15905;SDS011;8051;50.820;4.884;2024-01-25T06:32:34;67.27;;;16.83;;
15905;SDS011;8051;50.820;4.884;2024-01-25T06:35:03;64.80;;;17.37;;
15905;SDS011;8051;50.820;4.884;2024-01-25T06:37:31;59.93;;;19.10;;
15905;SDS011;8051;50.820;4.884;2024-01-25T06:39:58;71.63;;;18.27;;
15905;SDS011;8051;50.820;4.884;2024-01-25T06:42:27;67.67;;;17.43;;
15905;SDS011;8051;50.820;4.884;2024-01-25T06:44:55;64.33;;;17.07;;
15905;SDS011;8051;50.820;4.884;2024-01-25T06:47:22;93.87;;;18.83;;
15905;SDS011;8051;50.820;4.884;2024-01-25T06:49:50;60.77;;;18.83;;
15905;SDS011;8051;50.820;4.884;2024-01-25T06:52:17;69.43;;;19.50;;
15905;SDS011;8051;50.820;4.884;2024-01-25T06:54:45;56.17;;;17.50;;
15905;SDS011;8051;50.820;4.884;2024-01-25T06:57:12;72.37;;;17.93;;
15905;SDS011;8051;50.820;4.884;2024-01-25T06:59:42;70.73;;;19.63;;
15905;SDS011;8051;50.820;4.884;2024-01-25T07:02:09;66.40;;;16.50;;
15905;SDS011;8051;50.820;4.884;2024-01-25T07:04:37;69.27;;;18.37;;
15905;SDS011;8051;50.820;4.884;2024-01-25T07:07:05;89.87;;;20.70;;
15905;SDS011;8051;50.820;4.884;2024-01-25T07:09:33;88.77;;;19.47;;
15905;SDS011;8051;50.820;4.884;2024-01-25T07:12:00;78.60;;;21.33;;
15905;SDS011;8051;50.820;4.884;2024-01-25T07:14:28;83.67;;;21.00;;
15905;SDS011;8051;50.820;4.884;2024-01-25T07:16:56;72.93;;;19.47;;
15905;SDS011;8051;50.820;4.884;2024-01-25T07:19:24;63.10;;;18.37;;
15905;SDS011;8051;50.820;4.884;2024-01-25T07:21:51;48.07;;;18.07;;
15905;SDS011;8051;50.820;4.884;2024-01-25T07:24:19;85.93;;;21.30;;
15905;SDS011;8051;50.820;4.884;2024-01-25T07:26:46;58.27;;;19.47;;
15905;SDS011;8051;50.820;4.884;2024-01-25T07:29:14;79.77;;;21.17;;
15905;SDS011;8051;50.820;4.884;2024-01-25T07:31:41;62.73;;;18.07;;
15905;SDS011;8051;50.820;4.884;2024-01-25T07:34:10;60.67;;;20.67;;
15905;SDS011;8051;50.820;4.884;2024-01-25T07:36:37;75.83;;;20.37;;
15905;SDS011;8051;50.820;4.884;2024-01-25T07:39:04;71.77;;;20.53;;
15905;SDS011;8051;50.820;4.884;2024-01-25T07:41:31;82.90;;;19.13;;
15905;SDS011;8051;50.820;4.884;2024-01-25T07:43:58;83.97;;;21.40;;
15905;SDS011;8051;50.820;4.884;2024-01-25T07:46:25;77.97;;;19.87;;
15905;SDS011;8051;50.820;4.884;2024-01-25T07:48:53;73.80;;;20.80;;
15905;SDS011;8051;50.820;4.884;2024-01-25T07:51:21;78.77;;;23.80;;
15905;SDS011;8051;50.820;4.884;2024-01-25T07:53:53;70.73;;;21.57;;
15905;SDS011;8051;50.820;4.884;2024-01-25T07:56:21;90.33;;;23.30;;
15905;SDS011;8051;50.820;4.884;2024-01-25T07:58:48;117.63;;;25.63;;
15905;SDS011;8051;50.820;4.884;2024-01-25T08:01:17;65.83;;;21.03;;
15905;SDS011;8051;50.820;4.884;2024-01-25T08:03:45;64.33;;;21.60;;
15905;SDS011;8051;50.820;4.884;2024-01-25T08:06:13;99.13;;;24.67;;
15905;SDS011;8051;50.820;4.884;2024-01-25T08:08:42;93.83;;;25.07;;
15905;SDS011;8051;50.820;4.884;2024-01-25T08:11:09;55.03;;;21.77;;
15905;SDS011;8051;50.820;4.884;2024-01-25T08:13:36;60.07;;;22.60;;
15905;SDS011;8051;50.820;4.884;2024-01-25T08:16:08;86.20;;;27.60;;
15905;SDS011;8051;50.820;4.884;2024-01-25T08:18:36;64.20;;;29.10;;
15905;SDS011;8051;50.820;4.884;2024-01-25T08:21:03;70.77;;;25.43;;
15905;SDS011;8051;50.820;4.884;2024-01-25T08:23:31;71.20;;;26.67;;
15905;SDS011;8051;50.820;4.884;2024-01-25T08:26:00;68.67;;;24.87;;
15905;SDS011;8051;50.820;4.884;2024-01-25T08:28:27;66.57;;;26.03;;
15905;SDS011;8051;50.820;4.884;2024-01-25T08:30:55;50.33;;;21.37;;
15905;SDS011;8051;50.820;4.884;2024-01-25T08:33:23;45.13;;;21.37;;
15905;SDS011;8051;50.820;4.884;2024-01-25T08:35:50;55.87;;;22.60;;
15905;SDS011;8051;50.820;4.884;2024-01-25T08:38:18;70.93;;;26.10;;
15905;SDS011;8051;50.820;4.884;2024-01-25T08:40:45;51.23;;;23.13;;
15905;SDS011;8051;50.820;4.884;2024-01-25T08:43:14;47.03;;;22.10;;
15905;SDS011;8051;50.820;4.884;2024-01-25T08:45:41;84.20;;;26.97;;
15905;SDS011;8051;50.820;4.884;2024-01-25T08:48:09;58.27;;;25.57;;
15905;SDS011;8051;50.820;4.884;2024-01-25T08:50:38;66.67;;;25.67;;
15905;SDS011;8051;50.820;4.884;2024-01-25T08:53:05;72.60;;;27.50;;
15905;SDS011;8051;50.820;4.884;2024-01-25T08:55:33;71.87;;;27.80;;
15905;SDS011;8051;50.820;4.884;2024-01-25T08:58:00;59.03;;;24.27;;
15905;SDS011;8051;50.820;4.884;2024-01-25T09:00:29;49.70;;;22.50;;
15905;SDS011;8051;50.820;4.884;2024-01-25T09:02:56;58.07;;;21.83;;
15905;SDS011;8051;50.820;4.884;2024-01-25T09:05:24;66.40;;;25.50;;
15905;SDS011;8051;50.820;4.884;2024-01-25T09:07:53;51.07;;;23.03;;
15905;SDS011;8051;50.820;4.884;2024-01-25T09:10:21;54.27;;;22.93;;
15905;SDS011;8051;50.820;4.884;2024-01-25T09:12:48;90.97;;;25.73;;
15905;SDS011;8051;50.820;4.884;2024-01-25T09:15:16;76.10;;;23.97;;
15905;SDS011;8051;50.820;4.884;2024-01-25T09:17:45;70.77;;;25.17;;
15905;SDS011;8051;50.820;4.884;2024-01-25T09:20:12;71.30;;;24.67;;
15905;SDS011;8051;50.820;4.884;2024-01-25T09:22:40;78.83;;;26.97;;
15905;SDS011;8051;50.820;4.884;2024-01-25T09:25:08;66.23;;;25.47;;
15905;SDS011;8051;50.820;4.884;2024-01-25T09:27:36;64.93;;;24.93;;
15905;SDS011;8051;50.820;4.884;2024-01-25T09:30:04;73.43;;;25.30;;
15905;SDS011;8051;50.820;4.884;2024-01-25T09:32:33;66.27;;;23.43;;
15905;SDS011;8051;50.820;4.884;2024-01-25T09:35:02;56.60;;;23.30;;
15905;SDS011;8051;50.820;4.884;2024-01-25T09:37:29;64.00;;;24.37;;
15905;SDS011;8051;50.820;4.884;2024-01-25T09:39:57;62.57;;;25.37;;
15905;SDS011;8051;50.820;4.884;2024-01-25T09:42:24;60.37;;;26.00;;
15905;SDS011;8051;50.820;4.884;2024-01-25T09:44:52;63.67;;;25.17;;
15905;SDS011;8051;50.820;4.884;2024-01-25T09:47:21;62.40;;;27.60;;
15905;SDS011;8051;50.820;4.884;2024-01-25T09:49:48;62.77;;;27.87;;
15905;SDS011;8051;50.820;4.884;2024-01-25T09:52:17;89.73;;;29.83;;
15905;SDS011;8051;50.820;4.884;2024-01-25T09:54:51;71.33;;;30.20;;
15905;SDS011;8051;50.820;4.884;2024-01-25T09:57:22;61.67;;;25.67;;
15905;SDS011;8051;50.820;4.884;2024-01-25T09:59:52;60.23;;;27.30;;
15905;SDS011;8051;50.820;4.884;2024-01-25T10:02:20;68.00;;;29.37;;
15905;SDS011;8051;50.820;4.884;2024-01-25T10:04:49;71.70;;;28.03;;
15905;SDS011;8051;50.820;4.884;2024-01-25T10:07:34;70.77;;;27.47;;
15905;SDS011;8051;50.820;4.884;2024-01-25T10:10:03;60.23;;;27.87;;
15905;SDS011;8051;50.820;4.884;2024-01-25T10:12:31;68.40;;;28.93;;
15905;SDS011;8051;50.820;4.884;2024-01-25T10:14:59;71.47;;;28.10;;
15905;SDS011;8051;50.820;4.884;2024-01-25T10:17:27;65.00;;;26.30;;
15905;SDS011;8051;50.820;4.884;2024-01-25T10:19:55;70.80;;;27.43;;
15905;SDS011;8051;50.820;4.884;2024-01-25T10:22:24;72.63;;;28.17;;
15905;SDS011;8051;50.820;4.884;2024-01-25T10:24:52;74.07;;;28.03;;
15905;SDS011;8051;50.820;4.884;2024-01-25T10:27:19;67.90;;;26.77;;
15905;SDS011;8051;50.820;4.884;2024-01-25T10:29:48;72.67;;;28.93;;
15905;SDS011;8051;50.820;4.884;2024-01-25T10:32:16;71.63;;;29.00;;
15905;SDS011;8051;50.820;4.884;2024-01-25T10:34:44;63.20;;;28.67;;
15905;SDS011;8051;50.820;4.884;2024-01-25T10:37:13;82.67;;;28.83;;
15905;SDS011;8051;50.820;4.884;2024-01-25T10:39:44;65.90;;;28.60;;
15905;SDS011;8051;50.820;4.884;2024-01-25T10:42:12;71.97;;;30.17;;
15905;SDS011;8051;50.820;4.884;2024-01-25T10:44:39;81.30;;;29.30;;
15905;SDS011;8051;50.820;4.884;2024-01-25T10:47:07;76.40;;;28.20;;
15905;SDS011;8051;50.820;4.884;2024-01-25T10:49:35;62.87;;;26.33;;
15905;SDS011;8051;50.820;4.884;2024-01-25T10:52:04;76.70;;;29.50;;
15905;SDS011;8051;50.820;4.884;2024-01-25T10:54:32;70.67;;;29.57;;
15905;SDS011;8051;50.820;4.884;2024-01-25T10:57:03;80.37;;;28.03;;
15905;SDS011;8051;50.820;4.884;2024-01-25T10:59:32;87.80;;;31.00;;
15905;SDS011;8051;50.820;4.884;2024-01-25T11:02:00;71.30;;;29.60;;
15905;SDS011;8051;50.820;4.884;2024-01-25T11:04:29;63.60;;;29.97;;
15905;SDS011;8051;50.820;4.884;2024-01-25T11:07:04;61.60;;;28.87;;
15905;SDS011;8051;50.820;4.884;2024-01-25T11:09:33;71.47;;;27.70;;
15905;SDS011;8051;50.820;4.884;2024-01-25T11:12:10;71.00;;;31.30;;
15905;SDS011;8051;50.820;4.884;2024-01-25T11:14:39;61.47;;;29.63;;
15905;SDS011;8051;50.820;4.884;2024-01-25T11:17:18;78.13;;;30.50;;
15905;SDS011;8051;50.820;4.884;2024-01-25T11:19:47;66.03;;;32.93;;
15905;SDS011;8051;50.820;4.884;2024-01-25T11:22:16;71.20;;;32.50;;
15905;SDS011;8051;50.820;4.884;2024-01-25T11:24:43;65.43;;;32.30;;
15905;SDS011;8051;50.820;4.884;2024-01-25T11:27:12;63.10;;;35.97;;
15905;SDS011;8051;50.820;4.884;2024-01-25T11:29:41;75.00;;;37.33;;
15905;SDS011;8051;50.820;4.884;2024-01-25T11:32:09;93.23;;;40.87;;
15905;SDS011;8051;50.820;4.884;2024-01-25T11:34:36;75.63;;;40.00;;
15905;SDS011;8051;50.820;4.884;2024-01-25T11:37:04;88.50;;;41.17;;
15905;SDS011;8051;50.820;4.884;2024-01-25T11:39:31;72.07;;;41.47;;
15905;SDS011;8051;50.820;4.884;2024-01-25T11:41:59;79.90;;;40.27;;
15905;SDS011;8051;50.820;4.884;2024-01-25T11:44:28;79.27;;;41.63;;
15905;SDS011;8051;50.820;4.884;2024-01-25T11:46:56;82.30;;;40.97;;
15905;SDS011;8051;50.820;4.884;2024-01-25T11:49:23;64.27;;;40.27;;
15905;SDS011;8051;50.820;4.884;2024-01-25T11:51:51;73.47;;;40.10;;
15905;SDS011;8051;50.820;4.884;2024-01-25T11:54:19;67.07;;;38.40;;
15905;SDS011;8051;50.820;4.884;2024-01-25T11:56:46;73.13;;;38.57;;
15905;SDS011;8051;50.820;4.884;2024-01-25T11:59:14;54.37;;;38.13;;
15905;SDS011;8051;50.820;4.884;2024-01-25T12:01:44;53.93;;;36.43;;
15905;SDS011;8051;50.820;4.884;2024-01-25T12:04:11;53.13;;;36.43;;
15905;SDS011;8051;50.820;4.884;2024-01-25T12:06:40;53.17;;;34.43;;
15905;SDS011;8051;50.820;4.884;2024-01-25T12:09:08;49.70;;;34.50;;
15905;SDS011;8051;50.820;4.884;2024-01-25T12:11:38;44.40;;;32.37;;
15905;SDS011;8051;50.820;4.884;2024-01-25T12:14:07;57.53;;;31.83;;
15905;SDS011;8051;50.820;4.884;2024-01-25T12:16:34;38.33;;;30.83;;
15905;SDS011;8051;50.820;4.884;2024-01-25T12:19:03;44.60;;;30.27;;
15905;SDS011;8051;50.820;4.884;2024-01-25T12:21:32;48.47;;;30.33;;
15905;SDS011;8051;50.820;4.884;2024-01-25T12:23:59;39.77;;;29.67;;
15905;SDS011;8051;50.820;4.884;2024-01-25T12:26:27;43.70;;;28.27;;
15905;SDS011;8051;50.820;4.884;2024-01-25T12:29:00;37.50;;;28.07;;
15905;SDS011;8051;50.820;4.884;2024-01-25T12:31:28;39.37;;;26.87;;
15905;SDS011;8051;50.820;4.884;2024-01-25T12:33:55;44.77;;;27.90;;
15905;SDS011;8051;50.820;4.884;2024-01-25T12:36:25;43.10;;;28.17;;
15905;SDS011;8051;50.820;4.884;2024-01-25T12:38:52;40.37;;;27.33;;
15905;SDS011;8051;50.820;4.884;2024-01-25T12:41:19;44.30;;;25.80;;
15905;SDS011;8051;50.820;4.884;2024-01-25T12:43:47;40.03;;;26.60;;
15905;SDS011;8051;50.820;4.884;2024-01-25T12:46:14;41.90;;;26.27;;
15905;SDS011;8051;50.820;4.884;2024-01-25T12:48:41;36.83;;;25.50;;
15905;SDS011;8051;50.820;4.884;2024-01-25T12:51:09;36.60;;;26.33;;
15905;SDS011;8051;50.820;4.884;2024-01-25T12:53:38;38.00;;;24.77;;
15905;SDS011;8051;50.820;4.884;2024-01-25T12:56:05;40.03;;;26.57;;
15905;SDS011;8051;50.820;4.884;2024-01-25T12:58:33;38.77;;;25.53;;
15905;SDS011;8051;50.820;4.884;2024-01-25T13:01:00;36.03;;;24.73;;
15905;SDS011;8051;50.820;4.884;2024-01-25T13:03:28;42.20;;;24.77;;
15905;SDS011;8051;50.820;4.884;2024-01-25T13:05:55;26.70;;;23.47;;
15905;SDS011;8051;50.820;4.884;2024-01-25T13:08:23;37.97;;;24.00;;
15905;SDS011;8051;50.820;4.884;2024-01-25T13:10:52;34.17;;;24.10;;
15905;SDS011;8051;50.820;4.884;2024-01-25T13:13:19;35.17;;;25.43;;
15905;SDS011;8051;50.820;4.884;2024-01-25T13:15:47;34.90;;;24.47;;
15905;SDS011;8051;50.820;4.884;2024-01-25T13:18:14;33.10;;;24.47;;
15905;SDS011;8051;50.820;4.884;2024-01-25T13:20:42;33.33;;;24.20;;
15905;SDS011;8051;50.820;4.884;2024-01-25T13:23:09;32.27;;;23.40;;
15905;SDS011;8051;50.820;4.884;2024-01-25T13:25:37;33.90;;;23.00;;
15905;SDS011;8051;50.820;4.884;2024-01-25T13:28:06;30.93;;;22.27;;
15905;SDS011;8051;50.820;4.884;2024-01-25T13:30:33;29.10;;;22.70;;
15905;SDS011;8051;50.820;4.884;2024-01-25T13:33:01;25.87;;;22.13;;
15905;SDS011;8051;50.820;4.884;2024-01-25T13:35:28;24.33;;;21.83;;
15905;SDS011;8051;50.820;4.884;2024-01-25T13:37:56;32.27;;;22.53;;
15905;SDS011;8051;50.820;4.884;2024-01-25T13:40:26;24.00;;;19.43;;
15905;SDS011;8051;50.820;4.884;2024-01-25T13:42:53;30.17;;;21.00;;
15905;SDS011;8051;50.820;4.884;2024-01-25T13:45:22;25.03;;;18.23;;
15905;SDS011;8051;50.820;4.884;2024-01-25T13:47:50;24.30;;;19.93;;
15905;SDS011;8051;50.820;4.884;2024-01-25T13:50:17;23.33;;;20.90;;
15905;SDS011;8051;50.820;4.884;2024-01-25T13:52:45;24.07;;;21.50;;
15905;SDS011;8051;50.820;4.884;2024-01-25T13:55:12;21.73;;;19.70;;
15905;SDS011;8051;50.820;4.884;2024-01-25T13:57:41;27.23;;;20.67;;
15905;SDS011;8051;50.820;4.884;2024-01-25T14:00:09;22.73;;;20.57;;
15905;SDS011;8051;50.820;4.884;2024-01-25T14:02:39;26.97;;;19.87;;
15905;SDS011;8051;50.820;4.884;2024-01-25T14:05:10;21.37;;;19.17;;
15905;SDS011;8051;50.820;4.884;2024-01-25T14:07:37;20.10;;;18.20;;
15905;SDS011;8051;50.820;4.884;2024-01-25T14:10:05;18.77;;;17.07;;
15905;SDS011;8051;50.820;4.884;2024-01-25T14:12:33;20.80;;;18.40;;
15905;SDS011;8051;50.820;4.884;2024-01-25T14:15:00;19.47;;;17.37;;
15905;SDS011;8051;50.820;4.884;2024-01-25T14:17:29;22.57;;;17.30;;
15905;SDS011;8051;50.820;4.884;2024-01-25T14:19:58;18.20;;;16.63;;
15905;SDS011;8051;50.820;4.884;2024-01-25T14:22:25;17.07;;;15.60;;
15905;SDS011;8051;50.820;4.884;2024-01-25T14:24:53;17.47;;;16.17;;
15905;SDS011;8051;50.820;4.884;2024-01-25T14:27:20;16.40;;;15.10;;
15905;SDS011;8051;50.820;4.884;2024-01-25T14:29:48;17.53;;;16.03;;
15905;SDS011;8051;50.820;4.884;2024-01-25T14:32:15;17.73;;;15.63;;
15905;SDS011;8051;50.820;4.884;2024-01-25T14:34:44;17.60;;;16.10;;
15905;SDS011;8051;50.820;4.884;2024-01-25T14:37:13;17.40;;;16.00;;